Time;durP1;ratioP1;P1;durP2;ratioP2;P2;SDS_P1;SDS_P2;PMS_P1;PMS_P2;Temp;Humidity;BMP_temperature;BMP_pressure;BME280_temperature;BME280_humidity;BME280_pressure;Samples;Min_cycle;Max_cycle;Signal;HPM_P1;HPM_P2
2021/11/18 00:06:05;;;;;;;;;;;8.80;49.40;;;;;;20999222;27;77354;-72
2021/11/18 00:16:07;;;;;;;;;;;8.70;49.60;;;;;;20980318;27;75879;-71
2021/11/18 00:26:09;;;;;;;;;;;8.70;49.50;;;;;;20997611;27;74654;-71
2021/11/18 00:36:11;;;;;;;;;;;8.60;49.70;;;;;;20978857;27;76862;-70
2021/11/18 00:46:14;;;;;;;;;;;8.50;50.00;;;;;;20997008;27;74581;-71
2021/11/18 00:56:15;;;;;;;;;;;8.40;50.10;;;;;;20996481;27;76758;-70
2021/11/18 01:06:17;;;;;;;;;;;8.50;50.00;;;;;;20977082;27;75688;-72
2021/11/18 01:16:20;;;;;;;;;;;8.40;50.20;;;;;;20975492;27;75177;-72
2021/11/18 01:26:22;;;;;;;;;;;8.30;50.40;;;;;;20991418;27;77099;-74
2021/11/18 01:36:25;;;;;;;;;;;8.20;51.00;;;;;;20975092;27;75747;-71
2021/11/18 01:46:30;;;;;;;;;;;8.10;51.10;;;;;;20974730;27;74754;-71
2021/11/18 01:56:33;;;;;;;;;;;8.00;51.30;;;;;;20974396;27;74775;-71
2021/11/18 02:06:35;;;;;;;;;;;7.80;51.70;;;;;;20991623;27;76850;-71
2021/11/18 02:16:38;;;;;;;;;;;7.80;52.20;;;;;;20991926;27;75613;-71
2021/11/18 02:26:41;;;;;;;;;;;7.70;52.50;;;;;;21010462;27;75770;-73
2021/11/18 02:36:46;;;;;;;;;;;7.60;52.60;;;;;;21018481;27;76863;-71
2021/11/18 02:46:52;;;;;;;;;;;7.50;53.30;;;;;;20999991;27;76088;-72
2021/11/18 02:56:59;;;;;;;;;;;7.40;53.40;;;;;;21000201;27;75774;-71
2021/11/18 03:07:05;;;;;;;;;;;7.40;54.10;;;;;;20998931;27;74597;-70
2021/11/18 03:17:17;;;;;;;;;;;7.30;54.20;;;;;;20998671;27;75246;-73
2021/11/18 03:27:20;;;;;;;;;;;7.30;54.50;;;;;;21014822;27;75563;-70
2021/11/18 03:37:27;;;;;;;;;;;7.30;54.30;;;;;;21005115;27;75364;-71
2021/11/18 03:47:32;;;;;;;;;;;7.20;54.70;;;;;;21000206;27;74695;-70
2021/11/18 03:57:36;;;;;;;;;;;7.20;54.70;;;;;;21000119;27;76623;-69
2021/11/18 04:07:42;;;;;;;;;;;7.20;54.90;;;;;;20997741;27;75328;-72
2021/11/18 04:17:48;;;;;;;;;;;7.10;55.00;;;;;;20998378;27;74594;-72
2021/11/18 04:27:56;;;;;;;;;;;7.00;55.70;;;;;;20997103;27;76547;-69
2021/11/18 04:38:00;;;;;;;;;;;7.00;55.60;;;;;;20978649;27;75763;-70
2021/11/18 04:48:11;;;;;;;;;;;6.90;55.90;;;;;;20995530;27;76707;-71
2021/11/18 04:58:13;;;;;;;;;;;6.90;56.70;;;;;;20978032;27;77080;-70
2021/11/18 05:08:16;;;;;;;;;;;6.90;56.30;;;;;;20995531;27;76521;-71
2021/11/18 05:18:18;;;;;;;;;;;6.90;56.50;;;;;;20994514;27;77126;-70
2021/11/18 05:28:22;;;;;;;;;;;6.80;56.80;;;;;;20992866;27;74736;-73
2021/11/18 05:38:24;;;;;;;;;;;6.70;57.00;;;;;;20992671;27;75746;-69
2021/11/18 05:48:26;;;;;;;;;;;6.70;57.30;;;;;;20974073;27;76234;-72
2021/11/18 05:58:28;;;;;;;;;;;6.80;57.30;;;;;;20991837;27;75490;-70
2021/11/18 06:08:32;;;;;;;;;;;6.70;57.40;;;;;;20973966;27;75814;-70
2021/11/18 06:18:34;;;;;;;;;;;6.80;57.40;;;;;;20972574;27;76734;-68
2021/11/18 06:28:37;;;;;;;;;;;6.70;57.80;;;;;;20990540;27;74653;-71
2021/11/18 06:38:40;;;;;;;;;;;6.70;57.50;;;;;;20971514;27;75533;-70
2021/11/18 06:48:42;;;;;;;;;;;6.80;57.40;;;;;;20969181;27;76666;-69
2021/11/18 06:58:44;;;;;;;;;;;6.80;57.50;;;;;;20959726;27;76120;-74
2021/11/18 07:08:47;;;;;;;;;;;6.70;57.90;;;;;;20982062;27;76095;-72
2021/11/18 07:18:49;;;;;;;;;;;6.70;58.10;;;;;;20993405;27;75773;-63
2021/11/18 07:28:51;;;;;;;;;;;6.70;58.10;;;;;;20975117;27;76710;-68
2021/11/18 07:38:53;;;;;;;;;;;7.00;58.10;;;;;;20970551;27;75220;-67
2021/11/18 07:48:58;;;;;;;;;;;7.80;56.90;;;;;;20990450;27;75684;-63
2021/11/18 07:59:01;;;;;;;;;;;8.30;54.80;;;;;;20987668;27;76808;-62
2021/11/18 08:09:03;;;;;;;;;;;8.70;54.10;;;;;;20987029;27;75816;-64
2021/11/18 08:19:05;;;;;;;;;;;9.00;53.10;;;;;;20988103;27;75982;-64
2021/11/18 08:29:08;;;;;;;;;;;9.20;52.90;;;;;;20981660;27;76794;-62
2021/11/18 08:39:18;;;;;;;;;;;9.30;52.50;;;;;;20916395;27;76699;-62
2021/11/18 08:49:40;;;;;;;;;;;9.60;52.10;;;;;;20957358;27;77600;-63
2021/11/18 09:00:02;;;;;;;;;;;9.70;51.60;;;;;;20932843;27;77733;-62
2021/11/18 09:10:24;;;;;;;;;;;9.90;51.10;;;;;;20919682;27;77781;-63
2021/11/18 09:20:46;;;;;;;;;;;10.40;50.70;;;;;;20955149;27;78084;-62
2021/11/18 09:31:09;;;;;;;;;;;10.50;50.40;;;;;;20936661;27;77274;-66
2021/11/18 09:41:36;;;;;;;;;;;10.90;49.80;;;;;;20900752;28;78494;-63
2021/11/18 09:52:10;;;;;;;;;;;11.30;49.40;;;;;;20894287;28;76488;-62
2021/11/18 10:02:33;;;;;;;;;;;12.10;47.70;;;;;;20895589;28;75823;-63
2021/11/18 10:12:42;;;;;;;;;;;12.40;46.70;;;;;;20875609;28;76094;-62
2021/11/18 10:23:04;;;;;;;;;;;12.60;46.30;;;;;;20897300;28;75982;-65
2021/11/18 10:33:33;;;;;;;;;;;12.20;46.90;;;;;;20949224;27;75952;-61
2021/11/18 10:44:02;;;;;;;;;;;11.90;47.60;;;;;;20984671;27;76492;-62
2021/11/18 10:54:10;;;;;;;;;;;12.20;47.50;;;;;;20992904;27;76920;-62
2021/11/18 11:04:32;;;;;;;;;;;12.70;46.50;;;;;;20995129;27;75733;-61
2021/11/18 11:14:55;;;;;;;;;;;13.10;46.10;;;;;;20986086;27;76344;-66
2021/11/18 11:25:05;;;;;;;;;;;13.80;45.50;;;;;;20993090;27;76705;-64
2021/11/18 11:35:17;;;;;;;;;;;14.20;44.60;;;;;;20926738;27;76023;-63
2021/11/18 11:45:34;;;;;;;;;;;15.30;43.60;;;;;;20921755;27;75772;-63
2021/11/18 11:55:46;;;;;;;;;;;19.50;36.20;;;;;;20911906;27;76766;-67
2021/11/18 12:05:55;;;;;;;;;;;22.00;32.50;;;;;;20947040;27;76682;-65
2021/11/18 12:16:11;;;;;;;;;;;22.40;33.30;;;;;;20909129;27;75851;-63
2021/11/18 12:26:16;;;;;;;;;;;27.70;26.40;;;;;;20938669;27;75795;-64
2021/11/18 12:36:32;;;;;;;;;;;24.00;31.10;;;;;;20952519;27;76789;-65
2021/11/18 12:46:57;;;;;;;;;;;30.00;25.60;;;;;;20949717;27;75803;-65
2021/11/18 12:57:09;;;;;;;;;;;26.00;29.10;;;;;;20960883;27;76824;-64
2021/11/18 13:07:32;;;;;;;;;;;23.40;32.50;;;;;;20948593;27;75826;-65
2021/11/18 13:17:40;;;;;;;;;;;23.00;33.30;;;;;;20943306;27;75729;-63
2021/11/18 13:27:50;;;;;;;;;;;23.90;32.70;;;;;;20911257;27;76715;-62
2021/11/18 13:38:02;;;;;;;;;;;21.80;35.50;;;;;;20895402;28;76372;-63
2021/11/18 13:48:16;;;;;;;;;;;20.40;37.50;;;;;;20897551;28;76430;-63
2021/11/18 13:58:25;;;;;;;;;;;20.70;37.90;;;;;;20897299;28;77095;-63
2021/11/18 14:08:29;;;;;;;;;;;22.50;35.00;;;;;;20907253;28;76160;-64
2021/11/18 14:18:35;;;;;;;;;;;22.50;34.00;;;;;;20903124;28;75866;-63
2021/11/18 14:28:51;;;;;;;;;;;20.90;36.50;;;;;;20907096;27;76830;-63
2021/11/18 14:38:55;;;;;;;;;;;19.30;38.10;;;;;;20983286;27;76575;-62
2021/11/18 14:49:09;;;;;;;;;;;17.00;42.60;;;;;;20984772;27;76724;-62
2021/11/18 14:59:13;;;;;;;;;;;16.40;44.40;;;;;;20973845;27;76771;-66
2021/11/18 15:09:20;;;;;;;;;;;15.90;45.20;;;;;;20973774;27;74930;-64
2021/11/18 15:19:23;;;;;;;;;;;15.90;45.40;;;;;;20971486;27;75795;-65
2021/11/18 15:29:26;;;;;;;;;;;15.70;45.70;;;;;;20976453;27;75011;-66
2021/11/18 15:39:28;;;;;;;;;;;15.40;46.20;;;;;;20914460;27;77030;-63
2021/11/18 15:49:30;;;;;;;;;;;14.90;47.70;;;;;;20909955;27;75967;-63
2021/11/18 15:59:32;;;;;;;;;;;14.60;48.70;;;;;;20915312;28;75791;-62
2021/11/18 16:09:37;;;;;;;;;;;14.40;49.10;;;;;;20912177;27;74680;-63
2021/11/18 16:19:39;;;;;;;;;;;14.10;49.80;;;;;;20902604;27;75439;-63
2021/11/18 16:29:41;;;;;;;;;;;13.80;50.60;;;;;;20922406;27;75769;-63
2021/11/18 16:39:44;;;;;;;;;;;13.50;51.30;;;;;;20990822;27;75735;-63
2021/11/18 16:49:46;;;;;;;;;;;13.40;52.00;;;;;;20995588;27;76865;-64
2021/11/18 16:59:47;;;;;;;;;;;13.10;52.50;;;;;;20995707;27;75842;-63
2021/11/18 17:09:48;;;;;;;;;;;12.80;53.50;;;;;;20994827;27;76829;-64
2021/11/18 17:19:51;;;;;;;;;;;12.50;54.70;;;;;;21000119;27;75856;-83
2021/11/18 17:29:54;;;;;;;;;;;12.20;55.40;;;;;;20995322;27;75799;-75
2021/11/18 17:40:06;;;;;;;;;;;12.00;56.10;;;;;;20991788;27;75787;-70
2021/11/18 17:50:10;;;;;;;;;;;11.80;57.00;;;;;;20974073;27;75662;-75
2021/11/18 18:00:32;;;;;;;;;;;11.60;57.80;;;;;;20991666;27;76116;-73
2021/11/18 18:10:34;;;;;;;;;;;11.50;58.60;;;;;;20991356;27;76757;-70
2021/11/18 18:20:39;;;;;;;;;;;11.40;59.30;;;;;;20992859;27;76974;-66
2021/11/18 18:30:43;;;;;;;;;;;11.30;59.70;;;;;;20952705;27;75476;-67
2021/11/18 18:40:48;;;;;;;;;;;11.20;60.40;;;;;;20905961;27;74717;-69
2021/11/18 18:50:56;;;;;;;;;;;11.20;60.80;;;;;;20882477;27;75723;-71
2021/11/18 19:01:00;;;;;;;;;;;11.40;60.70;;;;;;20926430;27;76805;-72
2021/11/18 19:11:04;;;;;;;;;;;11.50;60.50;;;;;;20912823;27;76930;-67
2021/11/18 19:21:06;;;;;;;;;;;11.40;60.40;;;;;;20912302;28;76782;-69
2021/11/18 19:41:33;;;;;;;;;;;11.50;60.30;;;;;;20997997;27;75490;-71
2021/11/18 19:51:36;;;;;;;;;;;11.80;60.20;;;;;;20979888;27;74653;-65
2021/11/18 20:01:44;;;;;;;;;;;11.80;59.60;;;;;;20977341;27;75464;-67
2021/11/18 20:11:45;;;;;;;;;;;11.70;60.10;;;;;;21000994;27;76000;-65
2021/11/18 20:21:46;;;;;;;;;;;11.40;60.60;;;;;;20980840;27;75586;-67
2021/11/18 20:31:49;;;;;;;;;;;11.10;61.50;;;;;;20995858;27;75537;-65
2021/11/18 20:41:50;;;;;;;;;;;10.80;62.50;;;;;;20998530;27;75266;-68
2021/11/18 20:51:53;;;;;;;;;;;10.70;63.40;;;;;;20995745;27;75395;-69
2021/11/18 21:01:55;;;;;;;;;;;10.50;63.70;;;;;;20997373;27;76101;-65
2021/11/18 21:11:57;;;;;;;;;;;10.30;64.00;;;;;;20986226;27;76176;-68
2021/11/18 21:22:00;;;;;;;;;;;10.10;64.60;;;;;;20985410;27;76429;-67
2021/11/18 21:32:02;;;;;;;;;;;10.00;65.00;;;;;;20936083;27;76183;-67
2021/11/18 21:42:10;;;;;;;;;;;9.90;65.30;;;;;;20892798;28;95161;-66
2021/11/18 21:52:12;;;;;;;;;;;9.70;66.00;;;;;;20910061;28;75484;-65
2021/11/18 22:02:15;;;;;;;;;;;9.50;66.80;;;;;;20909846;28;75238;-64
2021/11/18 22:12:17;;;;;;;;;;;9.30;67.50;;;;;;20909411;28;76444;-65
2021/11/18 22:22:21;;;;;;;;;;;9.10;68.30;;;;;;20909219;28;76797;-69
2021/11/18 22:32:23;;;;;;;;;;;8.90;68.90;;;;;;20939283;27;75719;-65
2021/11/18 22:42:26;;;;;;;;;;;8.90;69.50;;;;;;20994800;27;77196;-68
2021/11/18 22:52:30;;;;;;;;;;;8.90;70.00;;;;;;21007077;27;75755;-68
2021/11/18 23:02:32;;;;;;;;;;;8.90;70.30;;;;;;21006229;27;75745;-66
2021/11/18 23:12:34;;;;;;;;;;;9.00;70.50;;;;;;21005028;27;74492;-66
2021/11/18 23:22:38;;;;;;;;;;;9.50;69.70;;;;;;21004300;27;75667;-70
2021/11/18 23:32:39;;;;;;;;;;;9.70;68.50;;;;;;20984883;27;75364;-68
2021/11/18 23:42:41;;;;;;;;;;;9.70;68.00;;;;;;21002999;27;76014;-68
2021/11/18 23:52:43;;;;;;;;;;;9.80;67.10;;;;;;20982340;27;76995;-68
